Address 0xbf54a3745241099dc74b4e4d27343dd1906d8f75 3

Txn Hash Method
Block
From
To
Value [Txn Fee]
0x461300be090fed9741e0d2e34860a5fc6f9dba1e614409804aeb03307766659fDeposit All186183112022-08-14 4:33:321 day 20 hrs ago0xbf54a3745241099dc74b4e4d27343dd1906d8f75OUT 0xdfc0cc5c036c52131fb351e50ba322b4d00ce60b0 AVAX0.‍014651275 25
0x60a3efaf404c4ec01ab801d03fa70ac86443ae546d13b22514a9bcd00a86232cRemove Liquidity...186181562022-08-14 4:28:201 day 21 hrs ago0xbf54a3745241099dc74b4e4d27343dd1906d8f75OUT Trader Joe: Router0 AVAX0.‍0060142103 27.‍35
0xbd26763bfe96fe52a9d112f089e9822149d7aef06006515b2a0ce7202e097dc7Claim186180242022-08-14 4:23:531 day 21 hrs ago0xbf54a3745241099dc74b4e4d27343dd1906d8f75OUT Grape Finance: Grape/Wlrs Node0 AVAX0.‍00299874986 26.‍41
0x9cccf39202f95b307352ca2f91a20e730c4899d80a4e3ac09de2d3d3fe2b660eDeposit186178572022-08-14 4:18:141 day 21 hrs ago0xbf54a3745241099dc74b4e4d27343dd1906d8f75OUT Grape Finance: Wine Reward Pool0 AVAX0.‍002851136845 27.‍080438104
0x3ab0961cc2347fbfacdbdf5ab0e0860049e6d5863209866e87cfad4251a654dcClaim186177882022-08-14 4:15:561 day 21 hrs ago0xbf54a3745241099dc74b4e4d27343dd1906d8f75OUT Grape Finance: LP Node0 AVAX0.‍00299874986 26.‍41
0xffa8459c948b3e9609cd3d790050cb619f7562c0ff6eea5656e3c02e589e72b0Approve185761422022-08-13 4:56:412 days 20 hrs ago0xbf54a3745241099dc74b4e4d27343dd1906d8f75OUT Avalanche Bridge: USDC.e0 AVAX0.‍00124697456 26.‍41
0x874147a05fabc4d3876ad9a492a96244c88c4651ca938236cef3d5c0d5e53fabApprove185094382022-08-11 15:39:194 days 9 hrs ago0xbf54a3745241099dc74b4e4d27343dd1906d8f75OUT Frozen Walrus Finance: WLRS Token0 AVAX0.‍00122824987 26.‍41
0x8ce463869a9ce258224e0016a43277a8f8d2466c7933972bce9bd806d7da84aeApprove184379182022-08-09 23:42:306 days 1 hr ago0xbf54a3745241099dc74b4e4d27343dd1906d8f75OUT 0x8605d0230d5df8e2a20d8e50f9460e42b4657cbb0 AVAX0.‍00128923056 26.‍41
0xa53884aadcef95f38f484d6c465cf37b6905186f30859337e30be66dbffb35e30x2550c1da184375882022-08-09 23:31:236 days 1 hr ago0xbf54a3745241099dc74b4e4d27343dd1906d8f75OUT 0xb099ed146fad4d0daa31e3810591fc0554af62bb0 AVAX0.‍00855126749 26.‍41
0x350680ff49ccfc67cc0c9cd45cc894f6a1a6fc9f7f23c0d100950bdaebf218adAdd Many To Pool184235062022-08-09 15:37:326 days 9 hrs ago0xbf54a3745241099dc74b4e4d27343dd1906d8f75OUT 0x4d9d766a380d86ecc4f16377e1bfe795a4b6a6ab0 AVAX0.‍03868792977 26.‍41
0x054776573be28eb47839f1c3c3dafa3f75b7be4942aa59e2d27942fb91ae46adAdd Many To Pool184233812022-08-09 15:33:226 days 9 hrs ago0xbf54a3745241099dc74b4e4d27343dd1906d8f75OUT 0x4d9d766a380d86ecc4f16377e1bfe795a4b6a6ab0 AVAX0.‍06004323 26
0xefb337c06154b92b6931739f3d723a9680834c83816f433f435c5a7f96db7c77Claim Many From ...184232512022-08-09 15:29:036 days 10 hrs ago0xbf54a3745241099dc74b4e4d27343dd1906d8f75OUT 0x26942eb6d555e5bd72c3fb51fb6f761224581a2e0 AVAX0.‍018502983934 26.‍563908105
0xe60fab208971a497c894c50813e593cc4e547165c1c192c7f11b8b457cb235c3Claim Many From ...184231782022-08-09 15:26:376 days 10 hrs ago0xbf54a3745241099dc74b4e4d27343dd1906d8f75OUT 0x26942eb6d555e5bd72c3fb51fb6f761224581a2e0 AVAX0.‍03509101982 26.‍41
0xef2f817d3e32955748ee5fe18cf093e02de0118b09479446307ffc6b9e964ba60x2550c1da183598772022-08-08 4:04:597 days 21 hrs ago0xbf54a3745241099dc74b4e4d27343dd1906d8f75OUT 0xb099ed146fad4d0daa31e3810591fc0554af62bb0 AVAX0.‍009921184 26
0x4dca3982c2bd74b393ef58ec3cd3dcc03db15905087ce44db5df830599cbd92fWithdraw183597652022-08-08 4:01:167 days 21 hrs ago0xbf54a3745241099dc74b4e4d27343dd1906d8f75OUT 0xdfc0cc5c036c52131fb351e50ba322b4d00ce60b0 AVAX0.‍005957925 25
0x22c394fbe7c935c22c42f1578d27e2ba2481ee049fafaedc36007932262c38ecApprove183487002022-08-07 21:49:148 days 3 hrs ago0xbf54a3745241099dc74b4e4d27343dd1906d8f75OUT 0xa7c43db4c0f6b59ec3ba65e256025721871aba7d0 AVAX0.‍001269216 26
0xa1216a6d01d6ed337150360fa4fa6bc9cc77a7986e2b6f66a505bb42512a5b40Compound183479572022-08-07 21:24:218 days 4 hrs ago0xbf54a3745241099dc74b4e4d27343dd1906d8f75OUT Grape Finance: Grape/Wlrs Node0 AVAX0.‍004438174 26
0x589990fa4be6d4a64a2ff77a5c41e09e6774e31892af0533dee5981f55cb3a36Approve183448142022-08-07 19:39:178 days 5 hrs ago0xbf54a3745241099dc74b4e4d27343dd1906d8f75OUT 0x8605d0230d5df8e2a20d8e50f9460e42b4657cbb0 AVAX0.‍001293306 26.‍5
0x44f83325040365f5db1a0f5dee0abfcd33cb86acb3b61e285dab3d943a501782Swap Exact Token...183368902022-08-07 15:13:418 days 10 hrs ago0xbf54a3745241099dc74b4e4d27343dd1906d8f75OUT 0xc7f372c62238f6a5b79136a9e5d16a2fd7a3f0f50 AVAX0.‍002829243388 26.‍3254
0x035be32af58216690f845cbcdb675341c3e548a1d888016aec6bc6492f6c9762Claim Reward183368602022-08-07 15:12:418 days 10 hrs ago0xbf54a3745241099dc74b4e4d27343dd1906d8f75OUT 0xc06715dc67969c81069b0f91d95a611feb3d526e0 AVAX0.‍00276549674 26.‍41
0x72b7c3c2e4b55aa2072b9478c6169c4eab3740932e77dc389dd58df2d4908340Claim Rewards183151772022-08-07 3:01:018 days 22 hrs ago0xbf54a3745241099dc74b4e4d27343dd1906d8f75OUT 0x25fce82cebacbb46b7e18380edd2d2a418a367920 AVAX0.‍001830946 26
0xecfc8286a616b22a60ea47813c87c321002e58da76db1bd37b12845b90bf63bdClaim Barn Rewar...183095062022-08-06 23:49:409 days 1 hr ago0xbf54a3745241099dc74b4e4d27343dd1906d8f75OUT 0x26942eb6d555e5bd72c3fb51fb6f761224581a2e0 AVAX0.‍00380636766 26.‍41
0xe587cb745075f22280985bef00d30fad22d4fd69759c5b46493e1a7605c7fd7e0x2550c1da183046122022-08-06 21:04:529 days 4 hrs ago0xbf54a3745241099dc74b4e4d27343dd1906d8f75OUT 0xb099ed146fad4d0daa31e3810591fc0554af62bb0 AVAX0.‍010153640747 26.‍614419968
0xa8baae339fc9274f5311ed4bab605bcd09a3a31e2bcf081360068bb7296ae774Approve183045242022-08-06 21:01:519 days 4 hrs ago0xbf54a3745241099dc74b4e4d27343dd1906d8f75OUT Grape Finance: WINE Token0 AVAX0.‍001209182 26
0x64de7d812659b72cb9282d1f547c99886b69499a6f9722aceb259362a802fe1bCompound183027492022-08-06 20:02:069 days 5 hrs ago0xbf54a3745241099dc74b4e4d27343dd1906d8f75OUT Grape Finance: Grape/Wlrs Node0 AVAX0.‍00450816059 26.‍41
[ Download CSV Export 
Latest 5 internal transactions
Parent Txn Hash Block From To Value
0x5611c1e6c58469be1f0651c7eb95173e2d25cdba0f40d09fa756c0e80732e265182197822022-08-04 21:20:4511 days 4 hrs ago Trader Joe: Router0xbf54a3745241099dc74b4e4d27343dd1906d8f750.‍680607191159398997 AVAX
0xed10743ded5d73b0a078f165447df0db94927d956df2b6c0d262a4dccafe9609182190032022-08-04 20:54:3311 days 4 hrs ago Trader Joe: Router0xbf54a3745241099dc74b4e4d27343dd1906d8f752.‍780053599413218408 AVAX
0x52023dd731b84e94416e4d9d0c753a14f14d5ac22f50e4389a9a292545f01766181721532022-08-03 18:44:0712 days 6 hrs ago 0x68d2e2db5924b44ef851411825fd57d7ebfac5a70xbf54a3745241099dc74b4e4d27343dd1906d8f750.‍12934054054054054 AVAX
0x750983e59585998d926a03360f362fa8bea0ce361e485ec94b4636105477e9e7181718942022-08-03 18:35:2712 days 6 hrs ago 0x68d2e2db5924b44ef851411825fd57d7ebfac5a70xbf54a3745241099dc74b4e4d27343dd1906d8f750.‍260383783783783783 AVAX
0xc7b3107aae1c90edc10b83506b98999c63187da84e33acf4e5edfd487bc31546181717952022-08-03 18:32:0912 days 6 hrs ago 0x68d2e2db5924b44ef851411825fd57d7ebfac5a70xbf54a3745241099dc74b4e4d27343dd1906d8f752.‍670162162162162163 AVAX
[ Download CSV Export 
Loading

Contract Name:
0

Compiler Version
0

Optimization Enabled:
0

Other Settings:
-NA-
Block Transaction Gas Used Reward
Age Block Fee Address BC Fee Address Voting Power Jailed Incoming
Block Uncle Number Difficulty Gas Used Reward
Loading
Make sure to use the "Vote Down" button for any spammy posts, and the "Vote Up" for interesting conversations.